Time;durP1;ratioP1;P1;durP2;ratioP2;P2;SDS_P1;SDS_P2;PMS_P1;PMS_P2;Temp;Humidity;BMP_temperature;BMP_pressure;BME280_temperature;BME280_humidity;BME280_pressure;Samples;Min_cycle;Max_cycle;Signal;HPM_P1;HPM_P2
2023/03/25 00:00:57;;;;;;;10.82;6.40;;;384.10;1894.40;;;;;;4934670;29;20031;-60
2023/03/25 00:03:27;;;;;;;8.82;4.70;;;384.00;1920.00;;;;;;4934093;29;20028;-60
2023/03/25 00:05:54;;;;;;;9.45;5.65;;;359.20;1945.60;;;;;;4933819;29;20067;-65
2023/03/25 00:08:22;;;;;;;9.25;6.05;;;359.20;1945.60;;;;;;4933959;29;20023;-64
2023/03/25 00:10:57;;;;;;;7.70;5.32;;;359.30;1920.00;;;;;;4934171;29;20676;-61
2023/03/25 00:13:23;;;;;;;7.43;4.13;;;359.30;1920.00;;;;;;4933713;29;20083;-61
2023/03/25 00:15:52;;;;;;;10.07;5.97;;;384.00;1894.40;;;;;;4946408;29;20032;-60
2023/03/25 00:18:20;;;;;;;12.13;7.25;;;384.00;1894.40;;;;;;4933766;29;20067;-61
2023/03/25 00:20:49;;;;;;;12.68;6.97;;;384.00;1920.00;;;;;;4933530;29;20467;-62
2023/03/25 00:23:16;;;;;;;9.07;6.18;;;359.00;1971.20;;;;;;4950975;28;20163;-62
2023/03/25 00:25:43;;;;;;;9.38;6.32;;;359.00;1945.60;;;;;;4967358;28;20481;-61
2023/03/25 00:28:10;;;;;;;11.27;5.95;;;359.10;1945.60;;;;;;4972955;28;20027;-61
2023/03/25 00:30:40;;;;;;;9.93;5.82;;;359.00;1996.80;;;;;;4972361;28;20481;-61
2023/03/25 00:33:09;;;;;;;11.25;8.27;;;358.90;1971.20;;;;;;4973119;28;20105;-60
2023/03/25 00:35:36;;;;;;;10.95;6.47;;;359.00;1996.80;;;;;;4972755;28;20117;-60
2023/03/25 00:38:02;;;;;;;10.02;7.45;;;358.80;2022.40;;;;;;4971911;28;20023;-67
2023/03/25 00:40:33;;;;;;;12.52;7.63;;;358.60;2022.40;;;;;;4972467;28;20026;-62
2023/03/25 00:43:00;;;;;;;7.55;4.97;;;358.70;1996.80;;;;;;4965103;28;20027;-61
2023/03/25 00:45:27;;;;;;;8.68;6.80;;;358.80;1971.20;;;;;;4967804;28;20039;-67
2023/03/25 00:47:52;;;;;;;8.43;6.07;;;358.70;1996.80;;;;;;4972858;28;20106;-61
2023/03/25 00:50:19;;;;;;;9.32;5.93;;;358.70;1971.20;;;;;;4972508;28;20562;-62
2023/03/25 00:52:44;;;;;;;10.80;5.57;;;358.80;1971.20;;;;;;4968561;28;20102;-63
2023/03/25 00:55:10;;;;;;;9.98;4.78;;;358.70;1996.80;;;;;;4962989;28;20110;-60
2023/03/25 00:57:36;;;;;;;7.95;5.13;;;358.60;2022.40;;;;;;4972750;28;20072;-62
2023/03/25 01:00:06;;;;;;;6.13;4.72;;;358.70;1996.80;;;;;;4972508;28;20026;-61
2023/03/25 01:02:32;;;;;;;7.95;5.40;;;358.60;1996.80;;;;;;4972078;28;20034;-66
2023/03/25 01:04:59;;;;;;;9.32;4.50;;;358.60;2022.40;;;;;;4972611;28;20433;-60
2023/03/25 01:07:28;;;;;;;6.15;4.60;;;358.60;1996.80;;;;;;4971218;28;20022;-61
2023/03/25 01:09:54;;;;;;;7.68;4.53;;;358.50;1996.80;;;;;;4972064;28;20034;-68
2023/03/25 01:12:20;;;;;;;6.25;4.10;;;358.60;1996.80;;;;;;4972008;28;20035;-68
2023/03/25 01:14:46;;;;;;;6.28;4.30;;;358.60;1996.80;;;;;;4972107;28;20414;-65
2023/03/25 01:17:12;;;;;;;5.80;3.67;;;358.60;1971.20;;;;;;4972060;28;20027;-64
2023/03/25 01:19:38;;;;;;;6.15;3.70;;;358.50;2022.40;;;;;;4972257;28;20031;-61
2023/03/25 01:22:04;;;;;;;6.57;3.83;;;358.50;1996.80;;;;;;4971274;28;20051;-68
2023/03/25 01:24:30;;;;;;;8.48;4.95;;;358.50;2022.40;;;;;;4971832;28;20061;-65
2023/03/25 01:26:56;;;;;;;6.45;4.40;;;333.60;2073.60;;;;;;4971900;28;20385;-69
2023/03/25 01:29:21;;;;;;;11.55;4.40;;;333.70;2073.60;;;;;;4971979;28;20023;-68
2023/03/25 01:31:47;;;;;;;7.60;4.57;;;333.70;2048.00;;;;;;4972020;28;20042;-61
2023/03/25 01:34:14;;;;;;;7.25;4.63;;;358.40;2022.40;;;;;;4971666;28;20023;-61
2023/03/25 01:36:45;;;;;;;6.13;4.25;;;358.40;2022.40;;;;;;4971335;28;20035;-63
2023/03/25 01:39:11;;;;;;;8.10;5.50;;;358.50;2022.40;;;;;;4971425;28;20010;-61
2023/03/25 01:41:37;;;;;;;7.10;5.03;;;358.40;2048.00;;;;;;4971941;28;20038;-66
2023/03/25 01:44:29;;;;;;;8.13;5.97;;;358.40;2048.00;;;;;;4971345;28;20027;-68
2023/03/25 01:47:00;;;;;;;10.02;6.97;;;358.40;2048.00;;;;;;4939568;28;20023;-60
2023/03/25 01:49:43;;;;;;;13.45;7.47;;;333.70;2073.60;;;;;;4971421;28;20105;-67
2023/03/25 01:52:08;;;;;;;10.87;6.47;;;333.60;2073.60;;;;;;4953692;28;20087;-63
2023/03/25 01:54:36;;;;;;;9.15;6.43;;;333.50;2099.20;;;;;;4971639;28;20035;-66
2023/03/25 01:57:02;;;;;;;12.18;7.97;;;333.30;2150.40;;;;;;4971318;28;20026;-61
2023/03/25 01:59:28;;;;;;;10.85;7.45;;;333.20;2150.40;;;;;;4971301;28;20535;-61
2023/03/25 02:02:02;;;;;;;8.98;5.63;;;333.20;2150.40;;;;;;4971473;28;20085;-67
2023/03/25 02:05:01;;;;;;;9.32;5.68;;;333.20;2176.00;;;;;;4970962;28;20023;-61
2023/03/25 02:07:29;;;;;;;9.18;4.93;;;333.20;2176.00;;;;;;4970976;28;20035;-64
2023/03/25 02:10:03;;;;;;;6.97;4.35;;;333.20;2176.00;;;;;;4971419;28;20023;-60
2023/03/25 02:12:29;;;;;;;6.47;4.45;;;333.20;2176.00;;;;;;4953182;28;20030;-60
2023/03/25 02:14:56;;;;;;;6.60;3.95;;;333.20;2176.00;;;;;;4971317;28;20098;-61
2023/03/25 02:17:46;;;;;;;7.43;4.30;;;333.30;2176.00;;;;;;4970944;28;20110;-69
2023/03/25 02:20:45;;;;;;;10.98;4.20;;;333.30;2150.40;;;;;;4970864;28;20438;-61
2023/03/25 02:23:47;;;;;;;5.65;4.45;;;333.20;2201.60;;;;;;4961191;28;20054;-61
2023/03/25 02:26:55;;;;;;;5.93;4.32;;;333.20;2227.20;;;;;;4959891;28;20034;-60
2023/03/25 02:29:39;;;;;;;7.82;4.35;;;333.10;2227.20;;;;;;4970735;28;20357;-61
2023/03/25 02:32:41;;;;;;;5.32;4.10;;;333.10;2252.80;;;;;;4970773;28;20025;-61
2023/03/25 02:35:07;;;;;;;6.72;3.83;;;333.20;2227.20;;;;;;4970838;28;20035;-61
2023/03/25 02:38:20;;;;;;;6.68;3.60;;;333.20;2201.60;;;;;;4970430;28;20367;-67
2023/03/25 02:41:00;;;;;;;8.25;5.10;;;333.20;2201.60;;;;;;4964018;28;20031;-64
2023/03/25 02:43:46;;;;;;;6.75;4.90;;;333.20;2227.20;;;;;;4970903;28;20027;-63
2023/03/25 02:46:16;;;;;;;6.57;4.00;;;333.00;2329.60;;;;;;4957150;28;20031;-69
2023/03/25 02:49:08;;;;;;;6.43;3.83;;;333.00;2329.60;;;;;;4970896;28;20035;-63
2023/03/25 02:51:43;;;;;;;6.15;4.25;;;332.90;2329.60;;;;;;4970285;28;20033;-68
2023/03/25 02:54:11;;;;;;;6.07;3.92;;;333.00;2329.60;;;;;;4970463;28;20490;-62
2023/03/25 02:56:40;;;;;;;6.28;3.97;;;332.90;2329.60;;;;;;4970576;28;20035;-60
2023/03/25 02:59:08;;;;;;;5.45;3.80;;;332.90;2329.60;;;;;;4970932;28;20031;-66
2023/03/25 03:01:35;;;;;;;6.50;3.97;;;308.00;2304.00;;;;;;4970770;28;20031;-65
2023/03/25 03:04:01;;;;;;;4.82;3.38;;;308.10;2304.00;;;;;;4970498;28;20033;-61
2023/03/25 03:06:27;;;;;;;5.03;3.53;;;332.80;2329.60;;;;;;4970223;28;20057;-61
2023/03/25 03:09:16;;;;;;;5.05;3.65;;;332.80;2329.60;;;;;;4970601;28;20019;-61
2023/03/25 03:11:58;;;;;;;8.65;4.50;;;308.10;2304.00;;;;;;4959706;28;20031;-62
2023/03/25 03:14:46;;;;;;;6.25;4.38;;;308.10;2304.00;;;;;;4970320;28;20037;-60
2023/03/25 03:17:40;;;;;;;5.35;3.53;;;332.80;2329.60;;;;;;4970201;28;20035;-62
2023/03/25 03:20:32;;;;;;;7.93;4.35;;;333.00;2329.60;;;;;;4940315;28;20031;-61
2023/03/25 03:23:10;;;;;;;6.47;3.92;;;333.10;2329.60;;;;;;4969923;28;20062;-60
2023/03/25 03:25:58;;;;;;;5.65;3.50;;;333.20;2329.60;;;;;;4970011;28;20041;-62
2023/03/25 03:28:39;;;;;;;5.50;3.47;;;333.20;2329.60;;;;;;4970455;28;20421;-60
2023/03/25 03:31:24;;;;;;;6.68;3.05;;;333.30;2329.60;;;;;;4959668;28;20023;-67
2023/03/25 03:34:01;;;;;;;7.93;3.75;;;333.40;2329.60;;;;;;4973927;28;20466;-60
2023/03/25 03:36:34;;;;;;;6.57;3.38;;;333.40;2329.60;;;;;;4973903;28;20049;-62
2023/03/25 03:39:28;;;;;;;5.03;3.78;;;333.40;2329.60;;;;;;4973381;28;20050;-66
2023/03/25 03:42:02;;;;;;;6.22;4.55;;;333.30;2329.60;;;;;;4914301;29;20111;-61
2023/03/25 03:44:37;;;;;;;5.50;3.75;;;333.10;2329.60;;;;;;4914055;29;20123;-61
2023/03/25 03:47:10;;;;;;;6.47;3.40;;;333.20;2329.60;;;;;;4913995;29;20036;-60
2023/03/25 03:49:44;;;;;;;6.72;4.22;;;333.20;2329.60;;;;;;4914063;29;20035;-69
2023/03/25 03:52:15;;;;;;;;;;;333.20;2329.60;;;;;;4913802;29;20040;-60
2023/03/25 03:54:55;;;;;;;7.72;4.00;;;333.20;2329.60;;;;;;4913940;29;19927;-62
2023/03/25 03:57:36;;;;;;;5.18;3.75;;;333.20;2329.60;;;;;;4913926;29;20088;-60
2023/03/25 04:00:17;;;;;;;7.75;4.43;;;333.30;2329.60;;;;;;4913671;29;20028;-67
2023/03/25 04:02:52;;;;;;;6.40;4.43;;;333.20;2329.60;;;;;;4913596;29;20028;-62
2023/03/25 04:05:21;;;;;;;5.68;3.80;;;333.20;2329.60;;;;;;4913970;29;20046;-70
2023/03/25 04:08:01;;;;;;;5.90;3.95;;;333.10;2329.60;;;;;;4913656;29;20028;-66
2023/03/25 04:10:40;;;;;;;5.57;3.88;;;333.20;2329.60;;;;;;4913742;29;20035;-64
2023/03/25 04:13:12;;;;;;;7.82;3.97;;;333.10;2329.60;;;;;;4913834;29;20035;-68
2023/03/25 04:15:39;;;;;;;6.25;3.65;;;333.10;2329.60;;;;;;4913717;29;20036;-69
2023/03/25 04:18:05;;;;;;;4.32;2.97;;;333.10;2329.60;;;;;;4925838;28;20104;-70
2023/03/25 04:20:35;;;;;;;8.30;3.90;;;333.10;2329.60;;;;;;4972924;28;20073;-70
2023/03/25 04:23:03;;;;;;;5.57;3.92;;;333.10;2329.60;;;;;;4972482;28;20035;-70
2023/03/25 04:25:31;;;;;;;7.40;4.43;;;333.20;2329.60;;;;;;4973126;28;20106;-64
2023/03/25 04:27:58;;;;;;;6.07;3.80;;;333.20;2329.60;;;;;;4973142;28;20521;-70
2023/03/25 04:30:26;;;;;;;5.00;3.22;;;333.20;2329.60;;;;;;4973133;28;20054;-64
2023/03/25 04:32:52;;;;;;;7.45;3.95;;;333.20;2329.60;;;;;;4972776;28;20503;-70
2023/03/25 04:35:18;;;;;;;9.38;3.80;;;333.30;2329.60;;;;;;4972264;28;20069;-61
2023/03/25 04:37:47;;;;;;;6.55;4.63;;;333.30;2329.60;;;;;;4972648;28;20105;-68
2023/03/25 04:40:17;;;;;;;6.07;4.13;;;333.20;2329.60;;;;;;4972704;28;20043;-63
2023/03/25 04:42:45;;;;;;;5.97;3.80;;;333.20;2329.60;;;;;;4972820;28;20027;-61
2023/03/25 04:45:15;;;;;;;7.70;3.75;;;333.30;2329.60;;;;;;4972692;28;20081;-67
2023/03/25 04:47:43;;;;;;;5.40;3.72;;;333.40;2329.60;;;;;;4972820;28;20121;-68
2023/03/25 04:50:23;;;;;;;5.53;4.07;;;333.30;2329.60;;;;;;4972516;28;20026;-67
2023/03/25 04:52:50;;;;;;;5.22;3.60;;;333.10;2329.60;;;;;;4971879;28;20035;-62
2023/03/25 04:55:19;;;;;;;5.78;4.45;;;333.20;2329.60;;;;;;4972749;28;20029;-61
2023/03/25 04:57:50;;;;;;;5.28;3.80;;;333.20;2329.60;;;;;;4972543;28;20027;-61
2023/03/25 05:00:18;;;;;;;7.53;3.28;;;333.30;2329.60;;;;;;4972549;28;20477;-65
2023/03/25 05:02:50;;;;;;;6.90;3.70;;;333.30;2329.60;;;;;;4972198;28;20033;-60
2023/03/25 05:05:18;;;;;;;5.68;3.28;;;333.40;2329.60;;;;;;4972549;28;20023;-67
2023/03/25 05:07:48;;;;;;;6.55;4.45;;;333.40;2329.60;;;;;;4972230;28;20098;-64
2023/03/25 05:10:20;;;;;;;7.68;4.63;;;333.50;2329.60;;;;;;4972329;28;20117;-63
2023/03/25 05:12:46;;;;;;;5.93;4.35;;;333.40;2329.60;;;;;;4972341;28;20078;-61
2023/03/25 05:15:12;;;;;;;7.20;4.28;;;333.20;2329.60;;;;;;4972100;28;20557;-61
2023/03/25 05:17:38;;;;;;;14.45;4.15;;;333.20;2329.60;;;;;;4972005;28;20495;-65
2023/03/25 05:20:07;;;;;;;5.05;3.50;;;333.40;2329.60;;;;;;4972057;28;20540;-63
2023/03/25 05:22:34;;;;;;;5.18;3.33;;;333.10;2329.60;;;;;;4971349;28;20134;-69
2023/03/25 05:25:01;;;;;;;5.05;3.75;;;333.20;2329.60;;;;;;4971714;28;20019;-65
2023/03/25 05:27:29;;;;;;;6.03;4.20;;;333.30;2329.60;;;;;;4972060;28;20039;-63
2023/03/25 05:29:57;;;;;;;8.05;3.55;;;333.20;2329.60;;;;;;4971886;28;20034;-65
2023/03/25 05:32:28;;;;;;;7.85;4.18;;;333.40;2329.60;;;;;;4959161;28;20026;-63
2023/03/25 05:34:55;;;;;;;7.22;3.95;;;333.60;2329.60;;;;;;4971729;28;20023;-65
2023/03/25 05:37:21;;;;;;;5.40;3.70;;;333.30;2329.60;;;;;;4971263;28;20038;-64
2023/03/25 05:39:47;;;;;;;9.30;4.25;;;333.30;2329.60;;;;;;4972088;28;20022;-66
2023/03/25 05:42:13;;;;;;;4.72;3.65;;;333.60;2329.60;;;;;;4971608;28;20027;-63
2023/03/25 05:44:49;;;;;;;5.38;3.83;;;333.70;2329.60;;;;;;4971666;28;20469;-64
2023/03/25 05:47:16;;;;;;;5.63;3.53;;;358.50;2329.60;;;;;;4971192;28;20105;-65
2023/03/25 05:49:42;;;;;;;4.82;3.97;;;358.60;2329.60;;;;;;4971618;28;20058;-63
2023/03/25 05:52:08;;;;;;;11.60;6.68;;;358.70;2329.60;;;;;;4970495;28;20125;-65
2023/03/25 05:54:37;;;;;;;13.90;6.03;;;358.80;2329.60;;;;;;4965113;28;20031;-63
2023/03/25 05:57:04;;;;;;;7.57;4.47;;;358.80;2329.60;;;;;;4951819;28;20035;-63
2023/03/25 05:59:30;;;;;;;11.90;7.20;;;359.00;2329.60;;;;;;4957698;28;20037;-64
2023/03/25 06:01:56;;;;;;;20.55;13.50;;;359.20;2329.60;;;;;;4958987;28;20134;-64
2023/03/25 06:04:22;;;;;;;19.45;11.23;;;359.20;2329.60;;;;;;4951219;28;20531;-66
2023/03/25 06:06:48;;;;;;;19.95;18.10;;;359.30;2329.60;;;;;;4951436;28;20110;-63
2023/03/25 06:09:14;;;;;;;9.43;6.68;;;384.00;2329.60;;;;;;4951776;28;20051;-64
2023/03/25 06:11:40;;;;;;;8.57;5.88;;;384.10;2329.60;;;;;;4957045;28;20035;-65
2023/03/25 06:14:06;;;;;;;6.80;5.55;;;384.10;2329.60;;;;;;4969753;28;20031;-62
2023/03/25 06:16:32;;;;;;;9.90;6.68;;;384.10;2329.60;;;;;;4955403;28;20485;-64
2023/03/25 06:18:59;;;;;;;6.70;5.10;;;384.00;2329.60;;;;;;4971028;28;20030;-65
2023/03/25 06:21:32;;;;;;;8.05;4.43;;;384.10;2329.60;;;;;;4970606;28;20034;-65
2023/03/25 06:24:00;;;;;;;6.55;4.20;;;384.10;2329.60;;;;;;4970850;28;20027;-63
2023/03/25 06:26:26;;;;;;;9.18;6.70;;;384.10;2329.60;;;;;;4970969;28;20053;-63
2023/03/25 06:28:52;;;;;;;9.68;6.57;;;384.10;2329.60;;;;;;4965076;28;20024;-65
2023/03/25 06:31:21;;;;;;;10.07;6.72;;;359.30;2329.60;;;;;;4962287;28;20030;-64
2023/03/25 06:33:48;;;;;;;9.20;5.72;;;359.30;2329.60;;;;;;4970549;28;20023;-64
2023/03/25 06:36:19;;;;;;;7.80;5.75;;;384.10;2329.60;;;;;;4952855;28;20430;-62
2023/03/25 06:38:47;;;;;;;8.45;7.53;;;384.10;2329.60;;;;;;4970124;28;20065;-64
2023/03/25 06:41:13;;;;;;;7.80;4.93;;;384.30;2278.40;;;;;;4970608;28;20548;-63
2023/03/25 06:43:40;;;;;;;10.27;5.00;;;384.30;2176.00;;;;;;4970168;28;20429;-64
2023/03/25 06:46:06;;;;;;;5.75;5.15;;;384.50;2099.20;;;;;;4955932;28;20082;-65
2023/03/25 06:48:32;;;;;;;6.43;5.25;;;384.60;2073.60;;;;;;4958709;28;20031;-63
2023/03/25 06:50:58;;;;;;;6.28;4.18;;;384.60;2099.20;;;;;;4966442;28;20034;-63
2023/03/25 06:53:24;;;;;;;11.20;6.78;;;384.60;2124.80;;;;;;4970347;28;20045;-65
2023/03/25 06:55:50;;;;;;;8.55;6.45;;;384.40;2278.40;;;;;;4969989;28;20035;-63
2023/03/25 06:58:15;;;;;;;8.00;5.00;;;384.40;2278.40;;;;;;4969290;28;20073;-64
2023/03/25 07:00:41;;;;;;;8.52;4.80;;;384.50;2201.60;;;;;;4970281;28;20038;-63
2023/03/25 07:03:08;;;;;;;10.02;6.75;;;384.70;2124.80;;;;;;4970568;28;20019;-64
2023/03/25 07:05:34;;;;;;;8.10;5.07;;;384.80;2201.60;;;;;;4969164;28;20034;-64
2023/03/25 07:08:00;;;;;;;7.30;4.10;;;384.90;2124.80;;;;;;4970280;28;20097;-64
2023/03/25 07:10:26;;;;;;;8.10;4.30;;;409.70;2073.60;;;;;;4970472;28;20027;-65
2023/03/25 07:12:51;;;;;;;6.90;4.15;;;409.70;2048.00;;;;;;4970108;28;20041;-63
2023/03/25 07:15:17;;;;;;;5.53;4.10;;;409.80;1996.80;;;;;;4970085;28;20026;-63
2023/03/25 07:17:43;;;;;;;6.50;4.40;;;409.80;1971.20;;;;;;4970006;28;20101;-66
2023/03/25 07:20:09;;;;;;;5.30;3.75;;;409.90;1996.80;;;;;;4970343;28;20074;-64
2023/03/25 07:22:35;;;;;;;6.50;4.82;;;410.00;1971.20;;;;;;4968627;28;20429;-63
2023/03/25 07:25:01;;;;;;;8.07;5.25;;;410.00;1945.60;;;;;;4969966;28;20019;-64
2023/03/25 07:27:26;;;;;;;8.05;4.78;;;410.10;1996.80;;;;;;4970392;28;20085;-62
2023/03/25 07:29:52;;;;;;;8.32;5.35;;;410.20;1996.80;;;;;;4969950;28;20378;-63
2023/03/25 07:32:18;;;;;;;16.20;11.27;;;410.20;1996.80;;;;;;4970472;28;20113;-66
2023/03/25 07:34:44;;;;;;;13.32;9.48;;;410.10;2150.40;;;;;;4970164;28;20484;-64
2023/03/25 07:37:10;;;;;;;12.80;9.75;;;410.00;2124.80;;;;;;4969958;28;20030;-64
2023/03/25 07:39:35;;;;;;;10.75;8.02;;;410.00;2150.40;;;;;;4970359;28;20116;-63
2023/03/25 07:42:01;;;;;;;14.90;10.98;;;410.00;2099.20;;;;;;4969547;28;20465;-63
2023/03/25 07:44:27;;;;;;;10.82;8.15;;;410.10;2099.20;;;;;;4970316;28;20027;-63
2023/03/25 07:46:53;;;;;;;11.98;8.05;;;410.20;2073.60;;;;;;4969852;28;20023;-63
2023/03/25 07:49:18;;;;;;;11.85;8.30;;;410.40;2048.00;;;;;;4970079;28;20023;-65
2023/03/25 07:51:44;;;;;;;10.25;6.00;;;410.50;2073.60;;;;;;4974328;28;20109;-66
2023/03/25 07:54:10;;;;;;;10.57;6.10;;;435.30;2022.40;;;;;;4977381;28;20027;-63
2023/03/25 07:56:36;;;;;;;7.60;5.80;;;435.40;2022.40;;;;;;4969913;28;20381;-62
2023/03/25 07:59:02;;;;;;;6.28;4.80;;;435.50;1996.80;;;;;;4969959;28;20023;-64
2023/03/25 08:01:28;;;;;;;9.18;5.38;;;435.50;1996.80;;;;;;4969409;28;20488;-63
2023/03/25 08:03:54;;;;;;;8.85;6.53;;;435.60;1971.20;;;;;;4969530;28;20102;-66
2023/03/25 08:06:20;;;;;;;147.95;103.65;;;435.60;1945.60;;;;;;4969694;28;20030;-64
2023/03/25 08:08:45;;;;;;;49.53;34.65;;;435.60;1945.60;;;;;;4969780;28;20447;-63
2023/03/25 08:11:11;;;;;;;95.13;71.93;;;435.70;1971.20;;;;;;4968021;28;20482;-61
2023/03/25 08:13:37;;;;;;;86.07;66.53;;;435.40;2124.80;;;;;;4969803;28;20039;-63
2023/03/25 08:16:09;;;;;;;114.22;83.00;;;435.60;2150.40;;;;;;4969796;28;20126;-62
2023/03/25 08:18:34;;;;;;;43.78;31.75;;;435.80;2124.80;;;;;;4973282;28;20019;-62
2023/03/25 08:21:00;;;;;;;71.10;49.30;;;435.90;2073.60;;;;;;4972561;28;20165;-62
2023/03/25 08:23:26;;;;;;;26.58;20.23;;;460.90;2048.00;;;;;;4973341;28;20035;-64
2023/03/25 08:25:52;;;;;;;108.93;75.35;;;461.20;1996.80;;;;;;4973078;28;20088;-64
2023/03/25 08:28:22;;;;;;;120.85;86.70;;;486.50;1945.60;;;;;;4972866;28;20482;-66
2023/03/25 08:30:54;;;;;;;118.13;83.90;;;486.80;1894.40;;;;;;4973003;28;20046;-64
2023/03/25 08:33:39;;;;;;;41.90;28.88;;;486.80;1894.40;;;;;;4972646;28;20081;-66
2023/03/25 08:36:08;;;;;;;183.68;126.63;;;487.20;1868.80;;;;;;4972642;28;20063;-65
2023/03/25 08:38:34;;;;;;;20.70;16.98;;;486.70;1894.40;;;;;;4972877;28;20023;-63
2023/03/25 08:41:00;;;;;;;183.20;135.23;;;486.40;1894.40;;;;;;4972097;28;20029;-63
2023/03/25 08:43:26;;;;;;;37.92;31.92;;;486.40;1920.00;;;;;;4972818;28;20023;-63
2023/03/25 08:45:52;;;;;;;28.45;21.85;;;461.70;1920.00;;;;;;4972515;28;20441;-63
2023/03/25 08:48:18;;;;;;;20.10;12.10;;;486.40;1920.00;;;;;;4972693;28;20414;-64
2023/03/25 08:50:44;;;;;;;31.08;18.92;;;461.50;1945.60;;;;;;4972425;28;20042;-66
2023/03/25 08:53:09;;;;;;;25.83;18.08;;;461.30;1971.20;;;;;;4972243;28;20058;-66
2023/03/25 08:55:38;;;;;;;19.38;14.35;;;461.50;1945.60;;;;;;4972618;28;20441;-65
2023/03/25 08:58:06;;;;;;;14.40;12.88;;;486.40;1945.60;;;;;;4972201;28;20019;-66
2023/03/25 09:00:36;;;;;;;17.70;11.65;;;461.70;1945.60;;;;;;4972377;28;20086;-65
2023/03/25 09:03:04;;;;;;;13.98;11.32;;;461.70;1945.60;;;;;;4972205;28;20023;-63
2023/03/25 09:05:30;;;;;;;15.32;11.02;;;486.70;1920.00;;;;;;4972209;28;20019;-64
2023/03/25 09:07:56;;;;;;;38.85;34.65;;;512.20;1843.20;;;;;;4972309;28;20054;-65
2023/03/25 09:10:22;;;;;;;23.90;18.27;;;512.50;1843.20;;;;;;4972303;28;20053;-63
2023/03/25 09:12:47;;;;;;;13.65;12.23;;;537.80;1817.60;;;;;;4972038;28;20026;-64
2023/03/25 09:15:13;;;;;;;17.92;13.82;;;538.20;1817.60;;;;;;4971953;28;20085;-65
2023/03/25 09:17:39;;;;;;;23.42;19.38;;;538.30;1792.00;;;;;;4971763;28;20027;-65
2023/03/25 09:20:09;;;;;;;15.98;13.93;;;563.30;1792.00;;;;;;4972043;28;20034;-65
2023/03/25 09:22:35;;;;;;;13.73;11.13;;;538.30;1792.00;;;;;;4971635;28;20055;-63
2023/03/25 09:25:02;;;;;;;14.10;11.40;;;538.50;1766.40;;;;;;4971762;28;20087;-65
2023/03/25 09:27:28;;;;;;;22.23;13.23;;;563.70;1817.60;;;;;;4971554;28;20034;-66
2023/03/25 09:29:53;;;;;;;9.70;6.93;;;563.40;1766.40;;;;;;4971328;28;20368;-63
2023/03/25 09:32:19;;;;;;;21.27;14.20;;;563.30;1766.40;;;;;;4971448;28;20026;-65
2023/03/25 09:34:45;;;;;;;7.78;7.00;;;563.50;1740.80;;;;;;4971723;28;20034;-64
2023/03/25 09:37:11;;;;;;;8.90;6.75;;;563.20;1740.80;;;;;;4971751;28;20030;-65
2023/03/25 09:39:36;;;;;;;24.27;21.58;;;563.20;1740.80;;;;;;4970556;28;20470;-65
2023/03/25 09:42:23;;;;;;;22.92;20.35;;;564.10;1715.20;;;;;;4971345;28;20033;-65
2023/03/25 09:45:26;;;;;;;18.63;12.48;;;563.90;1689.60;;;;;;4971253;28;20026;-66
2023/03/25 09:48:10;;;;;;;16.70;12.43;;;538.50;1740.80;;;;;;4970319;28;20381;-65
2023/03/25 09:50:38;;;;;;;24.02;14.23;;;538.40;1766.40;;;;;;4960136;28;20450;-66
2023/03/25 09:53:10;;;;;;;11.60;9.63;;;538.30;1792.00;;;;;;4971056;28;20073;-64
2023/03/25 09:55:41;;;;;;;13.13;8.47;;;537.90;1792.00;;;;;;4971504;28;20045;-64
2023/03/25 09:58:34;;;;;;;9.00;5.57;;;537.80;1792.00;;;;;;4971283;28;20026;-64
2023/03/25 10:01:00;;;;;;;;;;;537.70;1817.60;;;;;;4971490;28;20022;-66
2023/03/25 10:03:29;;;;;;;20.80;13.40;;;537.60;1817.60;;;;;;4971320;28;19913;-66
2023/03/25 10:06:11;;;;;;;15.50;12.77;;;537.80;1817.60;;;;;;4971169;28;20102;-66
2023/03/25 10:09:04;;;;;;;15.65;10.15;;;538.00;1817.60;;;;;;4971531;28;20027;-65
2023/03/25 10:11:38;;;;;;;17.15;10.38;;;538.20;1766.40;;;;;;4958091;28;20532;-63
2023/03/25 10:14:19;;;;;;;7.65;5.47;;;538.50;1766.40;;;;;;4971003;28;20342;-65
2023/03/25 10:17:04;;;;;;;13.27;11.52;;;563.20;1766.40;;;;;;4970931;28;20046;-66
2023/03/25 10:19:50;;;;;;;18.65;14.32;;;563.40;1766.40;;;;;;4970674;28;20035;-64
2023/03/25 10:22:35;;;;;;;8.70;7.72;;;538.50;1766.40;;;;;;4970692;28;20054;-64
2023/03/25 10:25:05;;;;;;;8.55;7.32;;;563.70;1740.80;;;;;;4970662;28;20362;-64
2023/03/25 10:27:38;;;;;;;8.25;7.35;;;563.80;1766.40;;;;;;4970754;28;20023;-63
2023/03/25 10:30:10;;;;;;;;;;;563.90;1740.80;;;;;;4971049;28;20031;-63
2023/03/25 10:33:05;;;;;;;17.52;15.85;;;538.40;1792.00;;;;;;4970904;28;19914;-64
2023/03/25 10:35:35;;;;;;;15.05;11.43;;;538.30;1792.00;;;;;;4967424;28;20085;-65
2023/03/25 10:38:11;;;;;;;11.35;8.80;;;538.10;1817.60;;;;;;4970759;28;20061;-63
2023/03/25 10:40:43;;;;;;;9.77;8.35;;;512.70;1843.20;;;;;;4970847;28;20027;-64
2023/03/25 10:43:17;;;;;;;8.93;7.40;;;538.10;1817.60;;;;;;4970711;28;20385;-64
2023/03/25 10:45:45;;;;;;;10.77;8.93;;;538.00;1843.20;;;;;;4970705;28;20102;-66
2023/03/25 10:48:28;;;;;;;10.02;8.70;;;538.30;1817.60;;;;;;4970593;28;20019;-66
2023/03/25 10:51:11;;;;;;;43.10;33.13;;;537.90;1817.60;;;;;;4969919;28;20086;-65
2023/03/25 10:53:38;;;;;;;19.70;15.52;;;537.80;1843.20;;;;;;4958504;28;20043;-63
2023/03/25 10:56:12;;;;;;;14.57;10.50;;;538.40;1817.60;;;;;;4969974;28;20043;-66
2023/03/25 10:58:40;;;;;;;10.35;7.90;;;563.30;1792.00;;;;;;4970542;28;20074;-65
2023/03/25 11:01:16;;;;;;;13.23;9.45;;;563.50;1792.00;;;;;;4970743;28;20093;-64
2023/03/25 11:03:43;;;;;;;19.98;14.75;;;563.80;1766.40;;;;;;4970013;28;20027;-66
2023/03/25 11:06:25;;;;;;;7.75;5.25;;;563.90;1792.00;;;;;;4970264;28;20244;-66
2023/03/25 11:09:14;;;;;;;11.18;10.07;;;563.90;1817.60;;;;;;4970380;28;20022;-66
2023/03/25 11:11:42;;;;;;;58.55;40.15;;;563.60;1766.40;;;;;;4961316;28;20126;-64
2023/03/25 11:14:09;;;;;;;12.88;10.27;;;563.40;1766.40;;;;;;4970234;28;20018;-65
2023/03/25 11:16:47;;;;;;;8.82;7.90;;;563.70;1766.40;;;;;;4970410;28;20038;-65
2023/03/25 11:19:40;;;;;;;8.75;7.68;;;563.60;1766.40;;;;;;4969976;28;20106;-63
2023/03/25 11:22:21;;;;;;;13.07;10.65;;;563.50;1817.60;;;;;;4969808;28;20045;-65
2023/03/25 11:24:56;;;;;;;102.60;70.85;;;563.90;1843.20;;;;;;4969921;28;20541;-66
2023/03/25 11:27:25;;;;;;;29.90;20.13;;;563.70;1843.20;;;;;;4969963;28;20030;-65
2023/03/25 11:29:59;;;;;;;35.05;23.95;;;563.20;1868.80;;;;;;4970185;28;20033;-63
2023/03/25 11:32:36;;;;;;;14.52;10.68;;;538.10;1894.40;;;;;;4970533;28;20037;-64
2023/03/25 11:35:15;;;;;;;9.90;6.90;;;537.90;1894.40;;;;;;4970022;28;20030;-63
2023/03/25 11:37:48;;;;;;;9.43;6.75;;;512.80;1920.00;;;;;;4969958;28;20493;-64
2023/03/25 11:40:17;;;;;;;9.52;6.13;;;537.90;1920.00;;;;;;4969666;28;20517;-65
2023/03/25 11:42:48;;;;;;;8.77;7.22;;;512.90;1894.40;;;;;;4970359;28;20386;-64
2023/03/25 11:45:44;;;;;;;13.65;10.35;;;512.60;1945.60;;;;;;4969683;28;20022;-63
2023/03/25 11:48:22;;;;;;;10.68;7.72;;;537.90;1945.60;;;;;;4968677;28;20038;-63
2023/03/25 11:51:00;;;;;;;9.68;6.90;;;537.80;1920.00;;;;;;4969715;28;20034;-65
2023/03/25 11:53:30;;;;;;;9.02;6.97;;;512.70;1945.60;;;;;;4973846;28;20031;-63
2023/03/25 11:56:21;;;;;;;15.40;12.23;;;537.80;1920.00;;;;;;4986611;28;20038;-63
2023/03/25 11:58:48;;;;;;;18.42;13.40;;;538.20;1868.80;;;;;;4963257;28;20050;-63
2023/03/25 12:01:23;;;;;;;17.65;12.40;;;538.50;1868.80;;;;;;4973551;28;20097;-65
2023/03/25 12:03:49;;;;;;;13.75;8.50;;;538.50;1868.80;;;;;;4973401;28;20026;-65
2023/03/25 12:06:18;;;;;;;13.80;11.45;;;563.50;1868.80;;;;;;4973334;28;20030;-63
2023/03/25 12:08:52;;;;;;;9.07;7.13;;;563.70;1868.80;;;;;;4973568;28;20421;-65
2023/03/25 12:11:26;;;;;;;7.45;6.32;;;563.20;1868.80;;;;;;4973203;28;20031;-65
2023/03/25 12:14:06;;;;;;;11.30;8.13;;;538.30;1868.80;;;;;;4972692;28;20026;-66
2023/03/25 12:16:43;;;;;;;8.43;7.13;;;563.70;1843.20;;;;;;4973204;28;20035;-62
2023/03/25 12:19:24;;;;;;;19.75;14.85;;;563.90;1817.60;;;;;;4973056;28;20029;-66
2023/03/25 12:22:05;;;;;;;11.10;9.32;;;563.40;1843.20;;;;;;4972426;28;20049;-65
2023/03/25 12:24:49;;;;;;;27.25;18.50;;;538.20;1868.80;;;;;;4961513;28;20038;-65
2023/03/25 12:27:30;;;;;;;15.60;13.07;;;537.70;1894.40;;;;;;4971762;28;20434;-64
2023/03/25 12:30:02;;;;;;;35.78;21.15;;;512.70;1894.40;;;;;;4973059;28;20389;-63
2023/03/25 12:32:42;;;;;;;51.17;35.03;;;512.80;1920.00;;;;;;4973115;28;20031;-63